Time;durP1;ratioP1;P1;durP2;ratioP2;P2;SDS_P1;SDS_P2;PMS_P1;PMS_P2;Temp;Humidity;BMP_temperature;BMP_pressure;BME280_temperature;BME280_humidity;BME280_pressure;Samples;Min_cycle;Max_cycle;Signal;HPM_P1;HPM_P2
2023/08/18 00:00:18;;;;;;;3.20;2.90;;;16.90;99.90;;;;;;4958559;28;20042;-86
2023/08/18 00:02:43;;;;;;;3.25;2.97;;;16.90;99.90;;;;;;4972429;28;20046;-86
2023/08/18 00:05:09;;;;;;;5.65;3.30;;;16.90;99.90;;;;;;4954767;28;20046;-87
2023/08/18 00:07:35;;;;;;;5.90;3.42;;;16.80;99.90;;;;;;4965461;28;20042;-86
2023/08/18 00:10:03;;;;;;;3.88;3.45;;;16.80;99.90;;;;;;4964663;28;20038;-87
2023/08/18 00:12:29;;;;;;;4.43;3.05;;;16.80;99.90;;;;;;4979682;28;20042;-87
2023/08/18 00:14:55;;;;;;;6.13;3.70;;;16.80;99.90;;;;;;4960838;28;20490;-87
2023/08/18 00:17:21;;;;;;;5.40;3.15;;;16.80;99.90;;;;;;4973108;28;20066;-87
2023/08/18 00:19:47;;;;;;;5.03;2.70;;;16.70;99.90;;;;;;4960210;28;20089;-87
2023/08/18 00:22:13;;;;;;;6.43;3.13;;;16.70;99.90;;;;;;4969259;28;20546;-86
2023/08/18 00:24:39;;;;;;;5.07;2.72;;;16.70;99.90;;;;;;4976833;28;20166;-88
2023/08/18 00:27:05;;;;;;;4.88;3.00;;;16.70;99.90;;;;;;4988921;28;20038;-85
2023/08/18 00:29:31;;;;;;;6.18;3.35;;;16.60;99.90;;;;;;4985959;28;20034;-87
2023/08/18 00:31:58;;;;;;;4.07;3.30;;;16.60;99.90;;;;;;4956534;28;20228;-87
2023/08/18 00:34:24;;;;;;;4.80;3.70;;;16.60;99.90;;;;;;4974810;28;20185;-85
2023/08/18 00:36:50;;;;;;;4.40;3.42;;;16.60;99.90;;;;;;4958633;28;20030;-86
2023/08/18 00:39:16;;;;;;;3.17;2.78;;;16.60;99.90;;;;;;4956995;28;20563;-88
2023/08/18 00:41:42;;;;;;;3.10;2.80;;;16.60;99.90;;;;;;4989438;28;20033;-86
2023/08/18 00:44:09;;;;;;;4.15;3.00;;;16.60;99.90;;;;;;4975432;28;20073;-85
2023/08/18 00:46:36;;;;;;;3.78;2.90;;;16.50;99.90;;;;;;4926756;28;20038;-85
2023/08/18 00:49:04;;;;;;;3.70;3.33;;;16.50;99.90;;;;;;4940907;28;20043;-87
2023/08/18 00:51:32;;;;;;;3.28;2.97;;;16.50;99.90;;;;;;4942166;28;20213;-86
2023/08/18 00:53:59;;;;;;;2.67;2.47;;;16.40;99.90;;;;;;4974457;28;20054;-85
2023/08/18 00:56:25;;;;;;;5.63;2.90;;;16.40;99.90;;;;;;4968699;28;20054;-87
2023/08/18 00:58:52;;;;;;;7.53;2.72;;;16.30;99.90;;;;;;4951081;28;20416;-85
2023/08/18 01:01:18;;;;;;;7.25;2.97;;;16.30;99.90;;;;;;4938728;28;20038;-83
2023/08/18 01:03:44;;;;;;;7.88;3.35;;;16.30;99.90;;;;;;4972857;28;20285;-85
2023/08/18 01:06:14;;;;;;;4.13;2.95;;;16.30;99.90;;;;;;4956696;28;20042;-85
2023/08/18 01:08:40;;;;;;;3.65;3.20;;;16.20;99.90;;;;;;4955142;28;20034;-85
2023/08/18 01:11:09;;;;;;;3.60;3.30;;;16.20;99.90;;;;;;4958201;28;20081;-84
2023/08/18 01:13:46;;;;;;;3.47;3.17;;;16.20;99.90;;;;;;4970529;28;20066;-85
2023/08/18 01:16:21;;;;;;;4.70;3.65;;;16.10;99.90;;;;;;4972437;28;20403;-84
2023/08/18 01:18:51;;;;;;;7.45;3.67;;;16.20;99.90;;;;;;4983448;28;20042;-87
2023/08/18 01:21:19;;;;;;;3.40;2.90;;;16.10;99.90;;;;;;4953919;28;20038;-86
2023/08/18 01:23:44;;;;;;;5.05;3.60;;;16.10;99.90;;;;;;4973111;28;20035;-85
2023/08/18 01:26:10;;;;;;;3.80;3.50;;;16.10;99.90;;;;;;4962995;28;20035;-87
2023/08/18 01:28:36;;;;;;;7.45;4.65;;;16.00;99.90;;;;;;4957856;28;20034;-87
2023/08/18 01:31:08;;;;;;;53.17;6.30;;;16.00;99.90;;;;;;4956913;28;20038;-85
2023/08/18 01:33:47;;;;;;;9.52;4.78;;;16.00;99.90;;;;;;4961416;28;20062;-86
2023/08/18 01:36:17;;;;;;;111.25;10.00;;;15.90;99.90;;;;;;4961454;28;20060;-84
2023/08/18 01:38:50;;;;;;;60.17;7.20;;;15.90;99.90;;;;;;4971316;28;20061;-86
2023/08/18 01:41:26;;;;;;;40.72;7.57;;;15.90;99.90;;;;;;4971844;28;20039;-86
2023/08/18 01:43:52;;;;;;;20.70;6.03;;;15.90;99.90;;;;;;4976667;28;20023;-85
2023/08/18 01:46:18;;;;;;;10.40;5.93;;;15.90;99.90;;;;;;4970416;28;20042;-87
2023/08/18 01:48:44;;;;;;;9.98;5.40;;;16.00;99.90;;;;;;4972226;28;20051;-87
2023/08/18 01:51:10;;;;;;;29.13;5.55;;;16.00;99.90;;;;;;4986777;28;20042;-87
2023/08/18 01:53:36;;;;;;;7.82;4.20;;;16.00;99.90;;;;;;4971660;28;20065;-87
2023/08/18 01:56:07;;;;;;;73.82;6.75;;;16.10;99.90;;;;;;4970704;28;20514;-84
2023/08/18 01:58:33;;;;;;;4.13;3.72;;;16.10;99.90;;;;;;4965871;28;20038;-87
2023/08/18 02:00:59;;;;;;;16.00;3.72;;;16.20;99.90;;;;;;4974096;28;20415;-86
2023/08/18 02:03:27;;;;;;;3.40;3.10;;;16.20;99.90;;;;;;4985295;28;20038;-86
2023/08/18 02:05:55;;;;;;;7.30;3.40;;;16.20;99.90;;;;;;4989591;28;20066;-85
2023/08/18 02:08:21;;;;;;;2.47;2.28;;;16.20;99.90;;;;;;4974260;28;20031;-85
2023/08/18 02:10:47;;;;;;;2.70;2.50;;;16.10;99.90;;;;;;4964748;28;20058;-87
2023/08/18 02:13:17;;;;;;;6.88;2.85;;;16.10;99.90;;;;;;4990175;28;20061;-86
2023/08/18 02:15:47;;;;;;;3.13;2.33;;;16.10;99.90;;;;;;4976715;28;20069;-84
2023/08/18 02:18:13;;;;;;;6.60;2.35;;;16.00;99.90;;;;;;4966554;28;20030;-83
2023/08/18 02:20:39;;;;;;;5.32;3.03;;;16.00;99.90;;;;;;4956981;28;20484;-85
2023/08/18 02:23:06;;;;;;;5.57;3.78;;;16.10;99.90;;;;;;4971329;28;20050;-81
2023/08/18 02:25:32;;;;;;;8.93;3.55;;;16.00;99.90;;;;;;4976750;28;20538;-85
2023/08/18 02:27:58;;;;;;;7.35;3.38;;;16.00;99.90;;;;;;4984436;28;20042;-88
2023/08/18 02:30:26;;;;;;;6.18;3.47;;;16.00;99.90;;;;;;4988510;28;20046;-87
2023/08/18 02:32:52;;;;;;;3.88;2.72;;;16.00;99.90;;;;;;4950288;28;20092;-87
2023/08/18 02:35:17;;;;;;;3.22;2.92;;;16.00;99.90;;;;;;4960081;28;20141;-87
2023/08/18 02:37:43;;;;;;;75.00;6.35;;;16.00;99.90;;;;;;4928053;28;20035;-86
2023/08/18 02:40:09;;;;;;;5.22;3.25;;;16.00;99.90;;;;;;4950468;28;20038;-86
2023/08/18 02:42:35;;;;;;;8.75;3.30;;;15.90;99.90;;;;;;4948417;28;20488;-86
2023/08/18 02:45:02;;;;;;;7.50;3.72;;;15.90;99.90;;;;;;4996218;28;20419;-83
2023/08/18 02:47:28;;;;;;;5.70;3.42;;;15.90;99.90;;;;;;4977855;28;20088;-85
2023/08/18 02:49:54;;;;;;;3.30;3.00;;;15.90;99.90;;;;;;4961348;28;20572;-85
2023/08/18 02:52:26;;;;;;;3.50;2.88;;;15.80;99.90;;;;;;4960953;28;20102;-84
2023/08/18 02:54:51;;;;;;;6.53;2.97;;;15.80;99.90;;;;;;4946705;28;20122;-84
2023/08/18 02:57:17;;;;;;;3.13;2.55;;;15.80;99.90;;;;;;4995521;28;20072;-86
2023/08/18 02:59:43;;;;;;;2.92;2.72;;;15.70;99.90;;;;;;4978000;28;20058;-86
2023/08/18 03:02:09;;;;;;;10.82;3.10;;;15.70;99.90;;;;;;4965549;28;20475;-85
2023/08/18 03:04:35;;;;;;;6.75;2.65;;;15.70;99.90;;;;;;4949790;28;20026;-86
2023/08/18 03:07:00;;;;;;;17.33;3.13;;;15.70;99.90;;;;;;4962237;28;20034;-86
2023/08/18 03:09:26;;;;;;;5.70;2.25;;;15.60;99.90;;;;;;4966792;28;20030;-86
2023/08/18 03:11:52;;;;;;;4.70;2.28;;;15.60;99.90;;;;;;4958669;28;20037;-86
2023/08/18 03:14:18;;;;;;;2.00;1.90;;;15.50;99.90;;;;;;4957476;28;20320;-86
2023/08/18 03:16:44;;;;;;;2.13;2.00;;;15.50;99.90;;;;;;4960726;28;20041;-85
2023/08/18 03:19:10;;;;;;;2.35;2.15;;;15.50;99.90;;;;;;4961878;28;20034;-85
2023/08/18 03:21:37;;;;;;;2.38;2.17;;;15.40;99.90;;;;;;4957563;28;20104;-86
2023/08/18 03:24:04;;;;;;;2.33;2.20;;;15.40;99.90;;;;;;4958685;28;20121;-85
2023/08/18 03:26:30;;;;;;;3.25;1.95;;;15.40;99.90;;;;;;4957630;28;20026;-86
2023/08/18 03:28:57;;;;;;;2.90;2.60;;;15.40;99.90;;;;;;4962557;28;20053;-84
2023/08/18 03:31:23;;;;;;;8.50;2.22;;;15.30;99.90;;;;;;4955332;28;20049;-86
2023/08/18 03:33:49;;;;;;;6.40;3.15;;;15.30;99.90;;;;;;4982454;28;20031;-85
2023/08/18 03:36:20;;;;;;;7.00;3.20;;;15.30;99.90;;;;;;4960742;28;20050;-86
2023/08/18 03:38:46;;;;;;;2.90;2.65;;;15.40;99.90;;;;;;4960441;28;20038;-86
2023/08/18 03:41:13;;;;;;;3.10;2.90;;;15.40;99.90;;;;;;4958393;28;20288;-86
2023/08/18 03:43:39;;;;;;;7.10;3.20;;;15.40;99.90;;;;;;4960991;28;20042;-85
2023/08/18 03:46:28;;;;;;;4.65;2.78;;;15.30;99.90;;;;;;4976628;28;20030;-85
2023/08/18 03:48:59;;;;;;;3.45;2.85;;;15.40;99.90;;;;;;4968963;28;20071;-86
2023/08/18 03:51:26;;;;;;;9.15;3.35;;;15.30;99.90;;;;;;4986698;28;20034;-85
2023/08/18 03:53:54;;;;;;;7.13;3.60;;;15.30;99.90;;;;;;4952326;28;20034;-86
2023/08/18 03:56:20;;;;;;;4.38;3.25;;;15.40;99.90;;;;;;4969179;28;20026;-86
2023/08/18 03:58:46;;;;;;;37.03;4.75;;;15.40;99.90;;;;;;4984712;28;20039;-85
2023/08/18 04:01:14;;;;;;;8.80;4.55;;;15.30;99.90;;;;;;4972931;28;20495;-84
2023/08/18 04:03:43;;;;;;;4.03;3.67;;;15.20;99.90;;;;;;4951510;28;20034;-86
2023/08/18 04:06:12;;;;;;;26.02;4.65;;;15.20;99.90;;;;;;4959901;28;20049;-85
2023/08/18 04:08:44;;;;;;;5.07;4.07;;;15.30;99.90;;;;;;5005130;28;20030;-85
2023/08/18 04:11:10;;;;;;;18.58;5.20;;;15.30;99.90;;;;;;4955710;28;20034;-85
2023/08/18 04:13:36;;;;;;;5.38;4.53;;;15.20;99.90;;;;;;4968705;28;20050;-85
2023/08/18 04:16:02;;;;;;;10.05;5.57;;;15.20;99.90;;;;;;4980767;28;20038;-85
2023/08/18 04:18:29;;;;;;;6.10;4.60;;;15.20;99.90;;;;;;4962863;28;20069;-85
2023/08/18 04:21:14;;;;;;;5.72;5.03;;;15.20;99.90;;;;;;4973374;28;20041;-83
2023/08/18 04:23:39;;;;;;;3.88;3.58;;;15.30;99.90;;;;;;4957606;28;20026;-82
2023/08/18 04:26:06;;;;;;;4.55;3.63;;;15.40;99.90;;;;;;4976366;28;20057;-82
2023/08/18 04:28:32;;;;;;;4.60;2.92;;;15.40;99.90;;;;;;4975298;28;20046;-84
2023/08/18 04:30:58;;;;;;;7.53;3.25;;;15.40;99.90;;;;;;4954200;28;20018;-84
2023/08/18 04:33:34;;;;;;;22.75;3.95;;;15.40;99.90;;;;;;4963852;28;20495;-85
2023/08/18 04:36:00;;;;;;;16.58;4.00;;;15.50;99.90;;;;;;4965676;28;20034;-82
2023/08/18 04:38:26;;;;;;;5.97;3.42;;;15.30;99.90;;;;;;4970890;28;20038;-84
2023/08/18 04:41:02;;;;;;;3.72;3.42;;;15.40;99.90;;;;;;4958173;28;20034;-82
2023/08/18 04:43:29;;;;;;;10.13;3.67;;;15.40;99.90;;;;;;4965979;28;20118;-85
2023/08/18 04:45:57;;;;;;;4.13;3.72;;;15.40;99.90;;;;;;4972782;28;20026;-85
2023/08/18 04:48:24;;;;;;;4.10;3.75;;;15.40;99.90;;;;;;4990672;28;20108;-84
2023/08/18 04:50:50;;;;;;;3.40;3.20;;;15.40;99.90;;;;;;4970663;28;20101;-82
2023/08/18 04:53:16;;;;;;;3.22;2.92;;;15.50;99.90;;;;;;4969182;28;20042;-85
2023/08/18 04:55:43;;;;;;;2.97;2.70;;;15.50;99.90;;;;;;4958501;28;20046;-85
2023/08/18 04:58:12;;;;;;;4.07;2.85;;;15.60;99.90;;;;;;4975439;28;20034;-81
2023/08/18 05:00:54;;;;;;;3.97;2.90;;;15.60;99.90;;;;;;4972111;28;20027;-86
2023/08/18 05:03:46;;;;;;;2.92;2.72;;;15.70;99.90;;;;;;4965018;28;20384;-83
2023/08/18 05:06:13;;;;;;;4.70;3.25;;;15.70;99.90;;;;;;4960777;28;20102;-85
2023/08/18 05:08:42;;;;;;;3.60;2.78;;;15.80;99.90;;;;;;4979170;28;20038;-83
2023/08/18 05:11:09;;;;;;;2.95;2.75;;;15.80;99.90;;;;;;4972704;28;20034;-84
2023/08/18 05:13:37;;;;;;;3.25;3.03;;;15.80;99.90;;;;;;4978288;28;20034;-86
2023/08/18 05:16:03;;;;;;;5.40;3.03;;;15.80;99.90;;;;;;4958005;28;20050;-84
2023/08/18 05:18:30;;;;;;;3.40;2.70;;;15.90;99.90;;;;;;4978389;28;20038;-85
2023/08/18 05:20:57;;;;;;;3.20;2.92;;;15.90;99.90;;;;;;4968488;28;20046;-85
2023/08/18 05:23:24;;;;;;;4.78;3.05;;;15.90;99.90;;;;;;4987245;28;20462;-85
2023/08/18 05:25:54;;;;;;;3.58;2.90;;;15.90;99.90;;;;;;4954695;28;20038;-85
2023/08/18 05:28:24;;;;;;;6.28;2.97;;;16.00;99.90;;;;;;4973259;28;20081;-83
2023/08/18 05:30:52;;;;;;;5.07;3.17;;;16.00;99.90;;;;;;4975453;28;20034;-85
2023/08/18 05:33:18;;;;;;;4.63;2.65;;;16.00;99.90;;;;;;4971598;28;20052;-86
2023/08/18 05:35:44;;;;;;;5.55;3.67;;;16.00;99.90;;;;;;4956987;28;20490;-86
2023/08/18 05:38:10;;;;;;;3.20;2.90;;;16.00;99.90;;;;;;4942812;28;20034;-85
2023/08/18 05:40:45;;;;;;;3.33;3.03;;;16.00;99.90;;;;;;4967133;28;20446;-85
2023/08/18 05:43:13;;;;;;;3.17;2.90;;;16.10;99.90;;;;;;4951020;28;20502;-85
2023/08/18 05:45:40;;;;;;;3.47;3.17;;;16.10;99.90;;;;;;4956014;28;20031;-84
2023/08/18 05:48:06;;;;;;;4.68;4.15;;;16.10;99.90;;;;;;4972508;28;20041;-86
2023/08/18 05:50:33;;;;;;;4.05;3.65;;;16.10;99.90;;;;;;4956769;28;20027;-86
2023/08/18 05:53:00;;;;;;;3.78;3.03;;;16.20;99.90;;;;;;4948142;28;20090;-85
2023/08/18 05:55:29;;;;;;;3.00;2.80;;;16.20;99.90;;;;;;4974325;28;20043;-86
2023/08/18 05:58:00;;;;;;;5.70;3.83;;;16.30;99.90;;;;;;4951792;28;20126;-86
2023/08/18 06:00:33;;;;;;;18.13;4.18;;;16.40;99.90;;;;;;4959396;28;20038;-86
2023/08/18 06:03:03;;;;;;;13.20;3.83;;;16.40;99.90;;;;;;4993834;28;20647;-85
2023/08/18 06:05:29;;;;;;;5.90;3.72;;;16.40;99.90;;;;;;4976274;28;20059;-87
2023/08/18 06:07:55;;;;;;;3.30;3.05;;;16.50;99.90;;;;;;4944977;28;20061;-86
2023/08/18 06:10:21;;;;;;;13.70;7.45;;;16.50;99.90;;;;;;4968396;28;20045;-85
2023/08/18 06:12:48;;;;;;;8.88;7.25;;;16.70;99.90;;;;;;4980229;28;20042;-85
2023/08/18 06:15:18;;;;;;;20.63;9.98;;;16.70;99.90;;;;;;4999782;28;20113;-85
2023/08/18 06:17:44;;;;;;;6.40;4.50;;;16.80;99.90;;;;;;4996572;28;20030;-85
2023/08/18 06:20:10;;;;;;;92.85;12.35;;;16.80;99.90;;;;;;4995054;28;20037;-85
2023/08/18 06:22:37;;;;;;;13.57;8.95;;;16.80;99.90;;;;;;4977541;28;20030;-86
2023/08/18 06:25:07;;;;;;;24.90;10.70;;;16.80;99.90;;;;;;4991991;28;20383;-86
2023/08/18 06:27:33;;;;;;;12.60;10.60;;;16.80;99.90;;;;;;4958757;28;20038;-84
2023/08/18 06:30:05;;;;;;;46.70;12.32;;;16.90;99.90;;;;;;4976945;28;20057;-85
2023/08/18 06:33:47;;;;;;;34.47;12.48;;;16.90;99.90;;;;;;4988245;28;20511;-86
2023/08/18 06:40:33;;;;;;;10.00;6.20;;;17.00;99.90;;;;;;4976702;28;20044;-84
2023/08/18 06:43:01;;;;;;;8.10;5.88;;;17.10;99.90;;;;;;4974613;28;20054;-87
2023/08/18 06:45:32;;;;;;;6.30;5.70;;;17.20;99.90;;;;;;4973026;28;20030;-84
2023/08/18 06:47:59;;;;;;;6.85;6.20;;;17.30;99.90;;;;;;4993691;28;20018;-87
2023/08/18 06:50:26;;;;;;;6.75;6.15;;;17.50;99.90;;;;;;4982677;28;20069;-87
2023/08/18 06:52:52;;;;;;;8.57;7.78;;;17.60;99.90;;;;;;4970227;28;20019;-86
2023/08/18 06:55:17;;;;;;;16.25;9.73;;;17.80;99.90;;;;;;4963299;28;20542;-85
2023/08/18 06:57:44;;;;;;;10.40;7.80;;;18.00;99.90;;;;;;4963522;28;20043;-85
2023/08/18 07:00:10;;;;;;;7.78;7.07;;;18.20;99.90;;;;;;4978097;28;20522;-85
2023/08/18 07:02:36;;;;;;;9.38;8.48;;;18.50;99.90;;;;;;4970924;28;20043;-85
2023/08/18 07:05:03;;;;;;;7.93;7.13;;;18.90;99.90;;;;;;4983771;28;20031;-85
2023/08/18 07:07:29;;;;;;;11.32;10.07;;;19.30;99.90;;;;;;4948568;28;20049;-84
2023/08/18 07:09:55;;;;;;;12.50;9.00;;;19.40;99.90;;;;;;4967884;28;20050;-85
2023/08/18 07:12:21;;;;;;;10.82;9.80;;;19.60;99.90;;;;;;4961239;28;20031;-84
2023/08/18 07:14:47;;;;;;;12.02;10.57;;;19.60;99.90;;;;;;4964200;28;20093;-86
2023/08/18 07:17:13;;;;;;;10.07;9.07;;;19.70;99.90;;;;;;4980181;28;20510;-86
2023/08/18 07:19:39;;;;;;;10.52;9.43;;;19.70;99.90;;;;;;4980691;28;20030;-85
2023/08/18 07:22:05;;;;;;;10.38;9.23;;;19.70;99.90;;;;;;4960882;28;20030;-84
2023/08/18 07:24:30;;;;;;;11.18;9.50;;;19.50;99.90;;;;;;4974070;28;20042;-84
2023/08/18 07:26:56;;;;;;;10.15;9.15;;;19.60;99.90;;;;;;4993774;28;20201;-85
2023/08/18 07:29:22;;;;;;;10.57;9.48;;;19.60;99.90;;;;;;4947564;28;20031;-84
2023/08/18 07:31:48;;;;;;;12.15;10.55;;;19.60;99.90;;;;;;4969111;28;20046;-83
2023/08/18 07:34:14;;;;;;;12.98;10.02;;;19.80;99.90;;;;;;4996460;28;20038;-85
2023/08/18 07:36:39;;;;;;;11.43;10.25;;;19.90;99.90;;;;;;4993533;28;20398;-83
2023/08/18 07:39:10;;;;;;;10.80;9.13;;;20.00;99.90;;;;;;4995213;28;20023;-84
2023/08/18 07:41:40;;;;;;;10.07;8.75;;;20.10;99.90;;;;;;4978306;28;20062;-83
2023/08/18 07:44:07;;;;;;;9.48;8.57;;;20.20;99.90;;;;;;4978205;28;20778;-81
2023/08/18 07:46:33;;;;;;;8.48;7.70;;;20.30;99.90;;;;;;4966913;28;20615;-83
2023/08/18 07:48:59;;;;;;;10.18;8.95;;;20.40;99.90;;;;;;4955360;28;20034;-83
2023/08/18 07:51:25;;;;;;;9.55;8.65;;;20.50;99.90;;;;;;4991749;28;20034;-83
2023/08/18 07:53:51;;;;;;;8.15;7.35;;;20.80;99.90;;;;;;4970674;28;20135;-82
2023/08/18 07:56:17;;;;;;;8.52;7.72;;;20.90;99.90;;;;;;4987060;28;20042;-83
2023/08/18 07:58:43;;;;;;;9.00;8.10;;;21.00;99.90;;;;;;4991788;28;20118;-81
2023/08/18 08:01:09;;;;;;;8.38;7.57;;;21.10;99.90;;;;;;4991116;28;20034;-83
2023/08/18 08:03:35;;;;;;;8.13;7.43;;;21.20;99.90;;;;;;4967079;28;20046;-82
2023/08/18 08:06:04;;;;;;;8.57;7.68;;;21.20;99.90;;;;;;4994496;28;20055;-80
2023/08/18 08:08:30;;;;;;;9.40;8.43;;;21.10;99.90;;;;;;4975731;28;20065;-81
2023/08/18 08:10:57;;;;;;;8.88;7.97;;;21.00;99.90;;;;;;4971598;28;20400;-83
2023/08/18 08:13:23;;;;;;;8.88;7.78;;;20.90;99.90;;;;;;4991052;28;20470;-83
2023/08/18 08:15:49;;;;;;;10.23;8.48;;;20.90;99.90;;;;;;4992309;28;20034;-84
2023/08/18 08:18:17;;;;;;;8.32;7.53;;;21.00;99.90;;;;;;4987733;28;20166;-85
2023/08/18 08:20:43;;;;;;;7.70;6.90;;;21.10;99.90;;;;;;4958953;28;20030;-82
2023/08/18 08:23:16;;;;;;;9.32;7.40;;;21.20;99.90;;;;;;4956281;28;20058;-82
2023/08/18 08:25:42;;;;;;;10.30;7.53;;;21.30;99.90;;;;;;4959413;28;20034;-82
2023/08/18 08:28:08;;;;;;;7.88;7.13;;;21.40;99.90;;;;;;4977718;28;20030;-82
2023/08/18 08:30:34;;;;;;;9.82;8.02;;;21.50;99.90;;;;;;4970072;28;20049;-82
2023/08/18 08:41:59;;;;;;;8.57;7.78;;;21.60;99.90;;;;;;4852688;29;20040;-80
2023/08/18 08:52:01;;;;;;;7.82;6.75;;;21.80;99.90;;;;;;4766246;30;20048;-80
2023/08/18 08:54:30;;;;;;;8.85;7.47;;;21.90;99.90;;;;;;4844015;29;20060;-81
2023/08/18 08:56:58;;;;;;;7.75;7.05;;;22.00;99.90;;;;;;4929852;29;20040;-82
2023/08/18 08:59:24;;;;;;;8.48;7.68;;;22.10;99.90;;;;;;4950944;28;20422;-83
2023/08/18 09:01:52;;;;;;;8.82;8.02;;;22.20;99.90;;;;;;4990966;28;20030;-81
2023/08/18 09:04:18;;;;;;;7.80;7.10;;;22.20;99.90;;;;;;4982519;28;20586;-82
2023/08/18 09:06:45;;;;;;;8.10;7.38;;;22.20;99.90;;;;;;4985941;28;20031;-83
2023/08/18 09:09:11;;;;;;;7.97;7.28;;;22.20;99.90;;;;;;4988603;28;20015;-81
2023/08/18 09:11:46;;;;;;;7.18;6.57;;;22.20;99.90;;;;;;4981922;28;20050;-82
2023/08/18 09:14:13;;;;;;;7.82;7.13;;;22.20;99.90;;;;;;4964406;28;20479;-83
2023/08/18 09:16:39;;;;;;;8.73;7.90;;;22.10;99.90;;;;;;4971148;28;20049;-83
2023/08/18 09:19:05;;;;;;;8.65;7.75;;;22.20;99.90;;;;;;4981057;28;20042;-86
2023/08/18 09:21:34;;;;;;;9.60;8.60;;;22.20;99.90;;;;;;4989140;28;20077;-85
2023/08/18 09:24:00;;;;;;;9.20;8.27;;;22.30;99.90;;;;;;4986350;28;20045;-84
2023/08/18 09:26:28;;;;;;;9.68;7.47;;;22.40;99.90;;;;;;4990211;28;20026;-84
2023/08/18 09:28:54;;;;;;;8.40;7.60;;;22.50;99.90;;;;;;4987109;28;20053;-80
2023/08/18 09:31:20;;;;;;;9.13;8.23;;;22.50;99.90;;;;;;4969122;28;20034;-83
2023/08/18 09:33:45;;;;;;;9.30;8.40;;;22.50;99.90;;;;;;4970822;28;20053;-83
2023/08/18 09:36:12;;;;;;;8.80;8.00;;;22.60;99.90;;;;;;4971056;28;20026;-82
2023/08/18 09:38:42;;;;;;;8.63;7.80;;;22.60;99.90;;;;;;4993840;28;20032;-81
2023/08/18 09:41:09;;;;;;;8.02;7.22;;;22.70;99.90;;;;;;4991790;28;20030;-81
2023/08/18 09:43:35;;;;;;;8.32;7.53;;;22.70;99.90;;;;;;4989158;28;20487;-82
2023/08/18 09:46:05;;;;;;;9.00;7.43;;;22.80;99.90;;;;;;4989774;28;20495;-82
2023/08/18 09:48:37;;;;;;;11.98;10.77;;;22.70;99.90;;;;;;4984416;28;20041;-83
2023/08/18 09:51:07;;;;;;;11.02;9.98;;;22.90;99.90;;;;;;4970277;28;20042;-82
2023/08/18 09:53:40;;;;;;;9.82;8.98;;;22.90;99.90;;;;;;4971006;28;20061;-79
2023/08/18 09:56:26;;;;;;;8.43;7.63;;;23.00;99.90;;;;;;4996627;28;20529;-83
2023/08/18 09:58:57;;;;;;;8.88;7.85;;;23.10;99.90;;;;;;4992204;28;20037;-80
2023/08/18 10:01:27;;;;;;;8.00;7.30;;;23.20;99.90;;;;;;4983626;28;20100;-83
2023/08/18 10:03:54;;;;;;;8.25;7.50;;;23.20;99.90;;;;;;4970057;28;20771;-82
2023/08/18 10:06:21;;;;;;;7.97;7.18;;;23.30;99.90;;;;;;4986120;28;20034;-81
2023/08/18 10:08:47;;;;;;;8.48;7.68;;;23.30;99.90;;;;;;4974309;28;20031;-83
2023/08/18 10:11:14;;;;;;;8.48;7.45;;;23.40;99.90;;;;;;4994637;28;20022;-81
2023/08/18 10:13:41;;;;;;;8.15;7.45;;;23.50;99.90;;;;;;4982878;28;20023;-81
2023/08/18 10:16:06;;;;;;;8.38;7.60;;;23.50;99.90;;;;;;4984324;28;20066;-80
2023/08/18 10:18:33;;;;;;;7.47;6.70;;;23.60;99.90;;;;;;4970632;28;20070;-80
2023/08/18 10:20:59;;;;;;;7.53;6.68;;;23.60;99.90;;;;;;4990399;28;20415;-79
2023/08/18 10:23:30;;;;;;;9.32;7.43;;;23.80;99.90;;;;;;4967008;28;20113;-81
2023/08/18 10:25:56;;;;;;;8.10;7.32;;;23.80;99.90;;;;;;4987093;28;20023;-81
2023/08/18 10:28:28;;;;;;;8.35;7.05;;;23.90;99.90;;;;;;4970807;28;20384;-80
2023/08/18 10:31:08;;;;;;;7.60;6.82;;;23.90;99.90;;;;;;4986298;28;20034;-82
2023/08/18 10:33:39;;;;;;;7.93;7.13;;;24.00;99.90;;;;;;4982577;28;20045;-81
2023/08/18 10:36:07;;;;;;;10.30;8.00;;;24.10;99.90;;;;;;4965788;28;20026;-80
2023/08/18 10:38:36;;;;;;;8.77;7.43;;;24.20;99.90;;;;;;4944721;28;20082;-81
2023/08/18 10:41:03;;;;;;;8.90;8.00;;;24.20;99.90;;;;;;4984535;28;20086;-83
2023/08/18 10:43:29;;;;;;;8.00;7.18;;;24.20;99.90;;;;;;4973267;28;20053;-81
2023/08/18 10:46:01;;;;;;;7.63;6.93;;;24.30;99.90;;;;;;4985202;28;20022;-80
2023/08/18 10:48:32;;;;;;;8.77;7.97;;;24.20;99.90;;;;;;4976114;28;20101;-81
2023/08/18 10:50:59;;;;;;;8.35;7.47;;;24.30;99.90;;;;;;4983499;28;20038;-79
2023/08/18 10:53:26;;;;;;;8.10;7.32;;;24.40;99.90;;;;;;4993899;28;20038;-83
2023/08/18 10:55:56;;;;;;;9.02;7.20;;;24.40;99.90;;;;;;4982448;28;20031;-80
2023/08/18 10:58:22;;;;;;;8.52;7.72;;;24.50;99.90;;;;;;4979964;28;20030;-80
2023/08/18 11:00:49;;;;;;;7.95;7.15;;;24.50;99.90;;;;;;4981825;28;20026;-81
2023/08/18 11:03:16;;;;;;;7.60;6.90;;;24.60;99.90;;;;;;4965920;28;20034;-80
2023/08/18 11:05:42;;;;;;;10.35;8.75;;;24.60;99.90;;;;;;4964395;28;20495;-81
2023/08/18 11:08:10;;;;;;;6.78;6.18;;;24.60;99.90;;;;;;4985992;28;20050;-84
2023/08/18 11:10:38;;;;;;;7.25;6.13;;;24.70;99.90;;;;;;4957750;28;20035;-82
2023/08/18 11:13:05;;;;;;;6.53;6.03;;;24.80;99.90;;;;;;4970237;28;20517;-83
2023/08/18 11:15:31;;;;;;;8.25;6.20;;;24.80;99.90;;;;;;4974727;28;20041;-82
2023/08/18 11:17:57;;;;;;;10.82;9.80;;;25.00;99.90;;;;;;4983880;28;20511;-81
2023/08/18 11:20:23;;;;;;;7.63;6.95;;;25.00;99.90;;;;;;4987861;28;20537;-83
2023/08/18 11:22:54;;;;;;;7.93;7.10;;;25.00;99.90;;;;;;4968339;28;20030;-82
2023/08/18 11:25:22;;;;;;;9.43;6.50;;;25.00;99.90;;;;;;4991942;28;20395;-82
2023/08/18 11:27:49;;;;;;;7.15;6.05;;;25.10;99.90;;;;;;4988389;28;20030;-82
2023/08/18 11:30:15;;;;;;;7.10;6.40;;;25.20;99.90;;;;;;4987626;28;20686;-82
2023/08/18 11:32:42;;;;;;;6.88;6.05;;;25.30;99.90;;;;;;4990721;28;20035;-82
2023/08/18 11:35:09;;;;;;;6.45;5.70;;;25.40;99.90;;;;;;4982267;28;20069;-81
2023/08/18 11:37:42;;;;;;;6.30;5.80;;;25.40;99.90;;;;;;4992102;28;20514;-82
2023/08/18 11:40:10;;;;;;;5.15;4.75;;;25.40;99.90;;;;;;4982250;28;20054;-81
2023/08/18 11:42:42;;;;;;;5.63;5.13;;;25.40;99.90;;;;;;4980586;28;20019;-81
2023/08/18 11:45:15;;;;;;;5.15;4.65;;;25.50;99.90;;;;;;4987914;28;20038;-82
2023/08/18 11:47:41;;;;;;;5.55;5.05;;;25.60;99.90;;;;;;4992529;28;20515;-81
2023/08/18 11:50:07;;;;;;;6.07;4.95;;;25.70;99.90;;;;;;4996537;28;20076;-82
2023/08/18 11:52:44;;;;;;;5.25;4.85;;;25.70;99.90;;;;;;4989026;28;20042;-82
2023/08/18 11:55:11;;;;;;;5.40;4.97;;;25.80;99.90;;;;;;4986206;28;20037;-81
2023/08/18 11:57:40;;;;;;;5.72;4.97;;;25.90;99.90;;;;;;4994700;28;20093;-81
2023/08/18 12:00:13;;;;;;;5.38;4.90;;;25.90;99.90;;;;;;4977596;28;20088;-81
2023/08/18 12:02:44;;;;;;;6.18;4.35;;;26.10;99.90;;;;;;4983947;28;20042;-82
2023/08/18 12:05:23;;;;;;;4.47;4.07;;;26.10;99.90;;;;;;4991313;28;20054;-82
2023/08/18 12:07:53;;;;;;;5.20;4.75;;;26.20;99.90;;;;;;4986619;28;20042;-81
2023/08/18 12:10:20;;;;;;;4.88;4.47;;;26.20;99.90;;;;;;4991812;28;20368;-82
2023/08/18 12:12:53;;;;;;;5.68;4.88;;;26.30;99.90;;;;;;4990448;28;20035;-80
2023/08/18 12:15:21;;;;;;;4.80;4.40;;;26.40;99.90;;;;;;4999429;28;20490;-81
2023/08/18 12:17:47;;;;;;;7.47;4.75;;;26.40;99.90;;;;;;4997761;28;20092;-81
2023/08/18 12:20:14;;;;;;;6.05;4.60;;;26.50;99.90;;;;;;4993199;28;20034;-82
2023/08/18 12:22:39;;;;;;;4.03;3.72;;;26.70;99.90;;;;;;4974080;28;20037;-81
2023/08/18 12:25:06;;;;;;;3.05;2.83;;;26.80;99.90;;;;;;4988603;28;20030;-80
2023/08/18 12:27:34;;;;;;;3.90;3.60;;;26.80;98.90;;;;;;4988174;28;20069;-83
2023/08/18 12:30:00;;;;;;;4.07;3.75;;;26.90;99.20;;;;;;4983017;28;20019;-80
2023/08/18 12:32:26;;;;;;;4.38;4.07;;;26.90;99.90;;;;;;4980661;28;20491;-83
2023/08/18 12:34:52;;;;;;;4.65;4.35;;;26.90;99.70;;;;;;4973626;28;20026;-80
2023/08/18 12:37:18;;;;;;;4.78;4.38;;;26.80;99.60;;;;;;4989270;28;20093;-80
2023/08/18 12:39:45;;;;;;;5.38;4.20;;;26.70;99.30;;;;;;4988505;28;20479;-82
2023/08/18 12:42:10;;;;;;;4.82;4.43;;;26.80;99.10;;;;;;4991999;28;20038;-82
2023/08/18 12:44:37;;;;;;;5.38;4.97;;;26.80;99.90;;;;;;4994137;28;20035;-81
2023/08/18 12:47:04;;;;;;;5.72;4.82;;;26.80;99.90;;;;;;4987725;28;20475;-80
2023/08/18 12:49:30;;;;;;;5.00;4.60;;;26.80;99.40;;;;;;4993291;28;20030;-81
2023/08/18 12:51:56;;;;;;;4.72;4.32;;;26.90;99.90;;;;;;4991211;28;20168;-80
2023/08/18 12:54:23;;;;;;;4.82;4.47;;;26.80;98.50;;;;;;4994469;28;20041;-82
2023/08/18 12:56:49;;;;;;;4.75;4.35;;;26.80;99.90;;;;;;4990547;28;20038;-80
2023/08/18 12:59:15;;;;;;;6.28;4.85;;;26.90;99.90;;;;;;4988612;28;20432;-80
2023/08/18 13:01:41;;;;;;;4.90;4.50;;;27.20;99.90;;;;;;4982608;28;20123;-79
2023/08/18 13:04:10;;;;;;;5.80;4.82;;;27.30;98.40;;;;;;4994996;28;20035;-80
2023/08/18 13:06:36;;;;;;;5.05;4.65;;;27.50;99.90;;;;;;4988211;28;20038;-82
2023/08/18 13:09:02;;;;;;;5.85;4.70;;;27.70;99.90;;;;;;4988462;28;20029;-80